Brookville, Illinois
Current Conditions -  °F | °C
As of 12:35 AM on Tuesday 21 Oct 2014 (Local Time) from KFEP Reporting Station
Overcast Overcast  
Wind Chill: 45°   Ceiling: 4400
Heat Index: 45°   Visibility: 10mi
Dew Point: 41°   Wind: 3mph
Humidity: 86%   Direction: 300°WNW
Pressure: 30.05"   Gusts: NA
Location:  41.9978°N, 89.6213°W
Report Text: KFEP 210535Z AUTO 30003KT 10SM OVC044 07/05 A3005 RMK AO2 T00700048
Loading
Personal Weather Stations






























Interactive Weather Map
Tropical Storm Tracking
New forecast layout! Learn more

10-Day Weather Forecast

Advertisements
Track Severe Weather on mobile